Aeroporto :
LOGIN :

Iscrizione | Disclaimer

   EN    FR    IT 

 










Sommario :    VFR   VFR Marginale   IFR   IFR Intensivo   IFR Molto Intensivo
Visibilità : 
Base nubi : 
>= 8 km
>= 3000ft
5 / 8 km
1000 / 3000 ft
1500m / 5 km
500 / 1000 ft
800 / 1500m
200 / 500 ft
< 800m
< 200 ft
Simboli :   Temporali  Nebbia  Neve Forte  Precipitazioni Forti  Vento > 20 kt
SIGMETs :   Varie  Temporali  Ghiacco  Turbolenza  Onda orograficha  Ceneri Vulcaniche







- Altitudine del aeroporto : 580 ft
- Carte del aeroporto


LFOA - Avord

ULTIMO METAR :
  • 220530Z AUTO 08006KT CAVOK 02/M01 Q1029

METARs OBSOLETI :
  • 220500Z AUTO 07005KT CAVOK 01/M01 Q1029
  • 220430Z AUTO 07004KT CAVOK 02/M01 Q1028
  • 220400Z AUTO 11003KT CAVOK 02/M01 Q1028
  • 220330Z AUTO 11004KT CAVOK 02/M01 Q1028
  • 220300Z AUTO 10004KT CAVOK 03/M01 Q1028

TAF AMD TAF LFOA
Valido dal 22 a 05 ore il 23 a 03 ore UTC


220525Z 2205/2303 07005KT CAVOK
PROB30
TEMPO 2205/2207 3000 BR
BECMG 2208/2210 18005KT
BECMG 2212/2214 25005KT
PROB30
TEMPO 2222/2303 3000 BR
Nessun NOTAM noto per questo aeroporto.



MetMap, La meteo Aeronautica in un colpo d'occhio ! - Copyright ORBIFLY Dicembre 2007 - Disclaimer

ORBIFLY MET'MAP TEAM :

Programmazione e sviluppo : Alexandra Zaïnal
Concezione e sviluppo : Baudouin d'Aumeries
Co-Programmazione e sviluppo : Marc-Olivier Méhu
Supporto tecnico e logistico : Manuel Goepfert
Aiuto per la traduzione : Arnaldo La Scala

Contatto : metmap@orbifly.com




FONTI E CREDITI :

   NOAA